createdAt,value
2023-04-26T00:04:24.736Z,4.25
2023-04-26T00:09:25.558Z,4.1875
2023-04-26T00:14:26.415Z,4.1875
2023-04-26T00:19:27.261Z,4.125
2023-04-26T00:24:28.311Z,4.0625
2023-04-26T00:29:29.243Z,4.0625
2023-04-26T00:34:30.237Z,3.9375
2023-04-26T00:39:31.973Z,3.9375
2023-04-26T00:44:32.001Z,3.9375
2023-04-26T00:49:33.104Z,3.9375
2023-04-26T00:54:34.115Z,3.875
2023-04-26T00:59:35.145Z,3.875
2023-04-26T01:04:36.117Z,3.75
2023-04-26T01:09:36.987Z,3.75
2023-04-26T01:14:38.172Z,3.6875
2023-04-26T01:19:39.056Z,3.625
2023-04-26T01:24:40.147Z,3.625
2023-04-26T01:29:41.176Z,3.625
2023-04-26T01:34:41.884Z,3.5625
2023-04-26T01:39:43.063Z,3.625
2023-04-26T01:44:44.306Z,3.5625
2023-04-26T01:49:45.361Z,3.5625
2023-04-26T01:54:46.368Z,3.4375
2023-04-26T01:59:47.354Z,3.4375
2023-04-26T02:04:48.313Z,3.375
2023-04-26T02:09:49.137Z,3.3125
2023-04-26T02:14:50.052Z,3.3125
2023-04-26T02:19:51.013Z,3.3125
2023-04-26T02:24:51.802Z,3.25
2023-04-26T02:29:52.855Z,3.1875
2023-04-26T02:34:53.749Z,3.125
2023-04-26T02:39:54.946Z,3
2023-04-26T02:44:55.819Z,3
2023-04-26T02:49:56.753Z,2.9375
2023-04-26T02:54:57.817Z,2.9375
2023-04-26T02:59:58.744Z,2.9375
2023-04-26T03:04:59.792Z,2.875
2023-04-26T03:10:00.732Z,2.875
2023-04-26T03:15:01.755Z,2.8125
2023-04-26T03:20:03.025Z,2.875
2023-04-26T03:25:03.482Z,2.8125
2023-04-26T03:30:04.542Z,2.75
2023-04-26T03:35:05.525Z,2.8125
2023-04-26T03:40:06.489Z,2.75
2023-04-26T03:45:07.325Z,2.75
2023-04-26T03:50:08.222Z,2.75
2023-04-26T03:55:09.240Z,2.8125
2023-04-26T04:00:10.429Z,2.6875
2023-04-26T04:05:11.472Z,2.8125
2023-04-26T04:10:12.225Z,2.75
2023-04-26T04:15:13.090Z,2.8125
2023-04-26T04:20:14.111Z,2.875
2023-04-26T04:25:14.791Z,3
2023-04-26T04:30:15.552Z,3.0625
2023-04-26T04:35:16.736Z,3.125
2023-04-26T04:40:17.584Z,3.125
2023-04-26T04:45:18.556Z,3.3125
2023-04-26T04:50:19.373Z,3.3125
2023-04-26T04:55:20.343Z,3.4375
2023-04-26T05:00:21.241Z,3.5
2023-04-26T05:05:22.507Z,3.6875
2023-04-26T05:10:23.515Z,3.75
2023-04-26T05:15:24.633Z,3.75
2023-04-26T05:20:25.944Z,3.8125
2023-04-26T05:25:27.046Z,3.875
2023-04-26T05:30:28.051Z,4
2023-04-26T05:35:29.248Z,4.25
2023-04-26T05:40:30.217Z,4.1875
2023-04-26T05:45:31.215Z,4.375
2023-04-26T05:50:32.127Z,4.375
2023-04-26T05:55:32.914Z,4.5625
2023-04-26T06:00:34.044Z,4.625
2023-04-26T06:05:34.925Z,4.6875
2023-04-26T06:10:35.992Z,4.8125
2023-04-26T06:15:37.049Z,4.9375
2023-04-26T06:20:38.063Z,5.0625
2023-04-26T06:25:39.039Z,5.1875
2023-04-26T06:30:39.987Z,5.4375
2023-04-26T06:35:40.952Z,5.8125
2023-04-26T06:40:42.288Z,6.0625
2023-04-26T06:45:43.724Z,7
2023-04-26T06:50:43.893Z,8.875
2023-04-26T06:55:44.836Z,9.125
2023-04-26T07:00:45.975Z,9.125
2023-04-26T07:05:46.966Z,9.75
2023-04-26T07:10:48.109Z,9.4375
2023-04-26T07:15:49.032Z,9.5625
2023-04-26T07:20:50.018Z,9.5
2023-04-26T07:25:51.135Z,11.3125
2023-04-26T07:30:51.895Z,11.625
2023-04-26T07:35:52.880Z,12.8125
2023-04-26T07:40:54.531Z,12.875
2023-04-26T07:45:54.806Z,13.1875
2023-04-26T07:50:55.846Z,12.9375
2023-04-26T07:55:56.905Z,12.5625
2023-04-26T08:00:57.700Z,12.625
2023-04-26T08:05:58.884Z,13.375
2023-04-26T08:10:59.887Z,12.25
2023-04-26T08:16:00.638Z,11.5625
2023-04-26T08:21:01.679Z,11.8125
2023-04-26T08:26:02.622Z,11.1875
2023-04-26T08:31:03.600Z,10.5
2023-04-26T08:36:04.528Z,10.5
2023-04-26T08:41:05.560Z,9.8125
2023-04-26T08:46:06.330Z,11.6875
2023-04-26T08:51:07.474Z,12
2023-04-26T08:56:08.347Z,12.5625
2023-04-26T09:01:09.440Z,11.875
2023-04-26T09:06:10.135Z,11.25
2023-04-26T09:11:11.231Z,10.9375
2023-04-26T09:16:12.324Z,10.875
2023-04-26T09:21:13.264Z,10.375
2023-04-26T09:26:14.249Z,10.5625
2023-04-26T09:31:15.210Z,10
2023-04-26T09:36:16.037Z,9.9375
2023-04-26T09:41:17.064Z,10
2023-04-26T09:46:17.935Z,10.25
2023-04-26T09:51:18.856Z,11.1875
2023-04-26T09:56:19.596Z,11.375
2023-04-26T10:01:20.644Z,10.9375
2023-04-26T10:06:21.711Z,11.125
2023-04-26T10:11:22.703Z,11.625
2023-04-26T10:16:23.783Z,11.125
2023-04-26T10:21:24.624Z,10.625
2023-04-26T10:26:25.728Z,10.1875
2023-04-26T10:31:26.789Z,9.9375
2023-04-26T10:36:27.750Z,10.0625
2023-04-26T10:41:29.185Z,10.1875
2023-04-26T10:46:29.569Z,10.625
2023-04-26T10:51:30.472Z,10.75
2023-04-26T10:56:31.699Z,10.8125
2023-04-26T11:01:32.734Z,10.4375
2023-04-26T11:06:33.493Z,10.375
2023-04-26T11:11:34.334Z,10.5625
2023-04-26T11:16:35.328Z,11.0625
2023-04-26T11:21:36.088Z,11.1875
2023-04-26T11:26:37.124Z,11.6875
2023-04-26T11:31:37.996Z,11.75
2023-04-26T11:36:38.989Z,11.5
2023-04-26T11:41:40.064Z,10.875
2023-04-26T11:46:40.986Z,10.75
2023-04-26T11:51:42.130Z,10.9375
2023-04-26T11:56:43.162Z,11.1875
2023-04-26T12:01:43.896Z,10.9375
2023-04-26T12:06:44.682Z,10.9375
2023-04-26T12:11:45.603Z,11.375
2023-04-26T12:16:46.613Z,11.375
2023-04-26T12:21:47.380Z,10.6875
2023-04-26T12:26:48.175Z,10.125
2023-04-26T12:31:49.214Z,9.75
2023-04-26T12:36:50.081Z,10.0625
2023-04-26T12:41:51.185Z,10.4375
2023-04-26T12:46:52.019Z,10.6875
2023-04-26T12:51:53.043Z,10.75
2023-04-26T12:56:54.032Z,10.75
2023-04-26T13:01:55.126Z,10.75
2023-04-26T13:06:56.175Z,10.875
2023-04-26T13:11:56.941Z,11.25
2023-04-26T13:16:57.811Z,11.4375
2023-04-26T13:21:58.651Z,11.125
2023-04-26T13:26:59.524Z,11.3125
2023-04-26T13:32:00.565Z,11.3125
2023-04-26T13:37:01.341Z,10.875
2023-04-26T13:42:02.216Z,10.5
2023-04-26T13:47:03.105Z,10.5
2023-04-26T13:52:04.022Z,11.4375
2023-04-26T13:57:04.994Z,11.3125
2023-04-26T14:02:06.079Z,10.8125
2023-04-26T14:07:06.982Z,10.8125
2023-04-26T14:12:08.992Z,10.9375
2023-04-26T14:17:08.941Z,11.1875
2023-04-26T14:22:09.903Z,11.25
2023-04-26T14:27:10.785Z,11.75
2023-04-26T14:32:11.890Z,12.1875
2023-04-26T14:37:12.743Z,11.9375
2023-04-26T14:42:13.712Z,11.5625
2023-04-26T14:47:14.696Z,11.375
2023-04-26T14:52:15.552Z,11.4375
2023-04-26T14:57:16.414Z,11.375
2023-04-26T15:02:17.388Z,11.4375
2023-04-26T15:07:28.636Z,11.5625
2023-04-26T15:12:19.371Z,11.6875
2023-04-26T15:17:20.341Z,11.4375
2023-04-26T15:22:21.376Z,11.125
2023-04-26T15:27:22.555Z,10.8125
2023-04-26T15:32:23.616Z,10.6875
2023-04-26T15:37:24.437Z,10.6875
2023-04-26T15:42:25.670Z,10.875
2023-04-26T15:47:26.438Z,10.8125
2023-04-26T15:52:27.560Z,10.8125
2023-04-26T15:57:28.494Z,10.4375
2023-04-26T16:02:29.500Z,10.4375
2023-04-26T16:07:30.313Z,10.4375
2023-04-26T16:12:31.401Z,10.375
2023-04-26T16:17:32.460Z,10.25
2023-04-26T16:22:33.258Z,10.1875
2023-04-26T16:27:34.177Z,10.0625
2023-04-26T16:32:35.053Z,10.1875
2023-04-26T16:37:35.955Z,10.4375
2023-04-26T16:42:37.457Z,10.4375
2023-04-26T16:47:37.969Z,10.125
2023-04-26T16:52:38.685Z,10
2023-04-26T16:57:39.701Z,10.0625
2023-04-26T17:02:40.959Z,10.1875
2023-04-26T17:07:41.694Z,10.25
2023-04-26T17:12:42.622Z,10.1875
2023-04-26T17:17:43.633Z,10
2023-04-26T17:22:44.376Z,9.5625
2023-04-26T17:27:45.388Z,9.25
2023-04-26T17:32:46.705Z,9.0625
2023-04-26T17:37:47.641Z,8.9375
2023-04-26T17:42:49.097Z,8.75
2023-04-26T17:47:49.721Z,8.6875
2023-04-26T17:52:50.599Z,8.5
2023-04-26T17:57:51.469Z,8.375
2023-04-26T18:02:52.689Z,8.25
2023-04-26T18:07:53.710Z,8.0625
2023-04-26T18:12:54.566Z,7.875
2023-04-26T18:17:55.709Z,7.75
2023-04-26T18:22:56.610Z,7.5625
2023-04-26T18:27:57.610Z,7.4375
2023-04-26T18:32:58.591Z,7.4375
2023-04-26T18:37:59.518Z,7.3125
2023-04-26T18:43:00.935Z,7.3125
2023-04-26T18:48:01.400Z,7.375
2023-04-26T18:53:02.355Z,7.5
2023-04-26T18:58:03.163Z,7.5625
2023-04-26T19:03:04.507Z,7.4375
2023-04-26T19:08:05.264Z,7.3125
2023-04-26T19:13:06.405Z,7.1875
2023-04-26T19:18:07.523Z,6.9375
2023-04-26T19:23:08.677Z,6.6875
2023-04-26T19:28:09.692Z,6.75
2023-04-26T19:33:10.987Z,6.8125
2023-04-26T19:38:12.246Z,6.8125
2023-04-26T19:43:13.460Z,6.875
2023-04-26T19:48:13.904Z,6.875
2023-04-26T19:53:14.839Z,6.875
2023-04-26T19:58:15.676Z,6.8125
2023-04-26T20:03:16.917Z,6.8125
2023-04-26T20:08:17.630Z,6.625
2023-04-26T20:13:18.654Z,6.5
2023-04-26T20:18:19.635Z,6.5
2023-04-26T20:23:20.655Z,6.4375
2023-04-26T20:28:21.551Z,6.3125
2023-04-26T20:33:22.859Z,6.25
2023-04-26T20:38:24.025Z,6.1875
2023-04-26T20:43:24.818Z,6.375
2023-04-26T20:48:25.741Z,6.3125
2023-04-26T20:53:26.691Z,6.3125
2023-04-26T20:58:27.740Z,6.5
2023-04-26T21:03:29.092Z,6.5
2023-04-26T21:08:29.698Z,6.4375
2023-04-26T21:13:30.791Z,6.4375
2023-04-26T21:18:31.878Z,6.3125
2023-04-26T21:23:33.013Z,6.375
2023-04-26T21:28:33.775Z,6.4375
2023-04-26T21:33:34.745Z,6.5625
2023-04-26T21:38:35.902Z,6.5
2023-04-26T21:43:37.671Z,6.625
2023-04-26T21:48:38.045Z,6.625
2023-04-26T21:53:38.634Z,6.75
2023-04-26T21:58:40.419Z,6.8125
2023-04-26T22:03:41.552Z,6.875
2023-04-26T22:08:42.224Z,6.875
2023-04-26T22:13:43.351Z,6.875
2023-04-26T22:18:44.266Z,6.9375
2023-04-26T22:23:45.133Z,6.9375
2023-04-26T22:28:45.886Z,7
2023-04-26T22:33:46.870Z,7
2023-04-26T22:38:47.856Z,7
2023-04-26T22:43:48.616Z,6.9375
2023-04-26T22:48:49.537Z,7
2023-04-26T22:53:50.462Z,7
2023-04-26T22:58:51.506Z,6.9375
2023-04-26T23:03:52.675Z,6.875
2023-04-26T23:08:53.558Z,6.9375
2023-04-26T23:13:54.486Z,6.875
2023-04-26T23:18:55.632Z,6.875
2023-04-26T23:23:56.546Z,6.8125
2023-04-26T23:29:02.532Z,6.8125
2023-04-26T23:33:58.752Z,6.8125
2023-04-26T23:38:59.529Z,6.8125
2023-04-26T23:44:00.617Z,6.8125
2023-04-26T23:49:01.402Z,6.8125
2023-04-26T23:54:02.349Z,6.8125
2023-04-26T23:59:03.300Z,6.8125
